createdAt,value
2019-01-18T00:00:15.725Z,2.20
2019-01-18T00:05:12.790Z,2.50
2019-01-18T00:10:12.629Z,2.67
2019-01-18T00:15:10.599Z,1.60
2019-01-18T00:20:14.666Z,1.57
2019-01-18T00:25:15.074Z,4.43
2019-01-18T00:30:14.655Z,3.90
2019-01-18T00:35:11.886Z,3.10
2019-01-18T00:40:15.205Z,3.43
2019-01-18T00:45:14.967Z,4.53
2019-01-18T00:50:14.710Z,4.70
2019-01-18T00:55:12.084Z,4.63
2019-01-18T01:00:22.658Z,4.33
2019-01-18T01:05:20.755Z,3.60
2019-01-18T01:10:19.517Z,3.03
2019-01-18T01:15:18.886Z,5.40
2019-01-18T01:20:18.623Z,4.30
2019-01-18T01:25:16.082Z,5.10
2019-01-18T01:30:24.498Z,5.77
2019-01-18T01:35:22.954Z,4.60
2019-01-18T01:40:26.670Z,5.20
2019-01-18T01:45:26.725Z,4.43
2019-01-18T01:50:28.539Z,4.30
2019-01-18T01:55:28.372Z,3.10
2019-01-18T02:00:26.963Z,3.33
2019-01-18T02:05:25.463Z,3.57
2019-01-18T02:10:23.577Z,3.57
2019-01-18T02:15:23.283Z,3.13
2019-01-18T02:20:21.956Z,2.87
2019-01-18T02:25:20.105Z,3.70
2019-01-18T02:30:38.303Z,3.33
2019-01-18T02:35:37.719Z,5.23
2019-01-18T02:40:34.550Z,4.83
2019-01-18T02:45:33.019Z,6.63
2019-01-18T02:50:29.889Z,4.70
2019-01-18T02:55:29.199Z,4.67
2019-01-18T03:00:31.957Z,4.80
2019-01-18T03:05:31.793Z,5.70
2019-01-18T03:10:30.198Z,6.67
2019-01-18T03:15:27.577Z,5.10
2019-01-18T03:20:26.358Z,6.90
2019-01-18T03:25:27.032Z,5.97
2019-01-18T03:30:24.470Z,6.83
2019-01-18T03:35:23.601Z,6.40
2019-01-18T03:40:31.020Z,6.50
2019-01-18T03:45:29.467Z,6.60
2019-01-18T03:50:30.786Z,5.90
2019-01-18T03:55:33.684Z,7.07
2019-01-18T04:00:31.078Z,6.10
2019-01-18T04:05:57.331Z,6.60
2019-01-18T04:10:56.305Z,7.90
2019-01-18T04:15:56.751Z,6.10
2019-01-18T04:21:05.024Z,7.50
2019-01-18T04:26:06.332Z,6.30
2019-01-18T04:31:08.017Z,7.23
2019-01-18T04:36:07.631Z,7.60
2019-01-18T04:41:05.641Z,7.07
2019-01-18T04:46:05.369Z,8.20
2019-01-18T04:51:02.110Z,7.70
2019-01-18T04:55:59.116Z,8.30
2019-01-18T05:00:57.225Z,8.50
2019-01-18T05:05:56.013Z,8.00
2019-01-18T05:10:53.006Z,8.37
2019-01-18T05:15:49.446Z,7.73
2019-01-18T05:20:45.503Z,7.70
2019-01-18T05:25:41.459Z,6.97
2019-01-18T05:30:37.482Z,11.10
2019-01-18T05:35:33.390Z,10.70
2019-01-18T05:40:29.277Z,11.50
2019-01-18T05:45:25.170Z,9.47
2019-01-18T05:50:23.369Z,9.70
2019-01-18T05:55:19.713Z,11.00
2019-01-18T06:00:35.895Z,7.43
2019-01-18T06:05:34.233Z,11.70
2019-01-18T06:10:30.130Z,11.47
2019-01-18T06:15:26.024Z,10.40
2019-01-18T06:20:25.250Z,12.87
2019-01-18T06:25:21.156Z,12.73
2019-01-18T06:30:18.680Z,4.80
2019-01-18T06:35:14.978Z,11.03
2019-01-18T06:40:13.482Z,12.10
2019-01-18T06:45:12.586Z,13.07
2019-01-18T06:50:10.901Z,12.77
2019-01-18T06:55:08.603Z,11.70
2019-01-18T07:00:08.340Z,13.03
2019-01-18T07:05:06.269Z,12.47
2019-01-18T07:10:07.975Z,14.37
2019-01-18T07:15:07.280Z,12.90
2019-01-18T07:20:07.003Z,8.70
2019-01-18T07:25:06.711Z,11.90
2019-01-18T07:30:09.224Z,11.90
2019-01-18T07:35:06.732Z,11.57
2019-01-18T07:40:06.358Z,12.03
2019-01-18T07:45:06.071Z,13.07
2019-01-18T07:50:02.679Z,15.60
2019-01-18T07:54:58.601Z,15.43
2019-01-18T07:59:54.469Z,11.40
2019-01-18T08:04:50.389Z,12.37
2019-01-18T08:09:46.297Z,10.57
2019-01-18T08:14:42.186Z,9.70
2019-01-18T08:19:38.776Z,10.43
2019-01-18T08:24:34.639Z,11.53
2019-01-18T08:29:30.541Z,10.70
2019-01-18T08:34:26.450Z,10.20
2019-01-18T08:39:22.347Z,12.50
2019-01-18T08:44:18.242Z,8.83
2019-01-18T08:49:15.566Z,10.60
2019-01-18T08:54:11.567Z,13.77
2019-01-18T08:59:07.461Z,11.70
2019-01-18T09:04:03.577Z,12.00
2019-01-18T09:08:59.486Z,11.30
2019-01-18T09:13:55.486Z,8.23
2019-01-18T09:18:51.405Z,9.43
2019-01-18T09:23:47.304Z,9.03
2019-01-18T09:28:43.244Z,9.50
2019-01-18T09:33:39.179Z,10.20
2019-01-18T09:38:35.077Z,8.70
2019-01-18T09:43:30.969Z,8.83
2019-01-18T09:48:27.028Z,9.03
2019-01-18T09:53:25.707Z,7.60
2019-01-18T09:58:24.607Z,5.07
2019-01-18T10:03:23.589Z,6.07
2019-01-18T10:08:19.605Z,6.40
2019-01-18T10:13:15.507Z,5.53
2019-01-18T10:18:11.469Z,6.50
2019-01-18T10:23:07.359Z,6.30
2019-01-18T10:28:03.449Z,7.63
2019-01-18T10:32:59.341Z,6.67
2019-01-18T10:37:55.334Z,6.30
2019-01-18T10:42:51.325Z,5.53
2019-01-18T10:47:48.423Z,4.90
2019-01-18T10:52:44.413Z,5.90
2019-01-18T10:57:40.505Z,4.10
2019-01-18T11:02:36.397Z,5.33
2019-01-18T11:07:32.297Z,5.83
2019-01-18T11:12:28.328Z,6.30
2019-01-18T11:17:24.217Z,5.83
2019-01-18T11:22:20.104Z,11.90
2019-01-18T11:27:15.996Z,12.17
2019-01-18T11:32:13.777Z,11.10
2019-01-18T11:37:09.792Z,11.03
2019-01-18T11:42:05.694Z,12.60
2019-01-18T11:47:01.580Z,12.40
2019-01-18T11:51:57.481Z,12.20
2019-01-18T11:56:53.375Z,12.67
2019-01-18T12:01:49.279Z,12.57
2019-01-18T12:06:45.198Z,13.60
2019-01-18T12:11:41.110Z,12.00
2019-01-18T12:16:37.002Z,12.30
2019-01-18T12:21:37.125Z,12.10
2019-01-18T12:26:30.694Z,11.47
2019-01-18T12:31:26.590Z,11.93
2019-01-18T12:36:26.867Z,4.90
2019-01-18T12:41:22.858Z,3.03
2019-01-18T12:46:18.801Z,5.57
2019-01-18T12:51:15.839Z,4.13
2019-01-18T12:56:15.582Z,4.40
2019-01-18T13:01:12.487Z,4.40
2019-01-18T13:06:08.638Z,2.80
2019-01-18T13:11:04.506Z,2.90
2019-01-18T13:16:06.828Z,3.30
2019-01-18T13:21:02.722Z,3.40
2019-01-18T13:25:59.563Z,4.33
2019-01-18T13:30:57.266Z,3.83
2019-01-18T13:35:53.904Z,3.10
2019-01-18T13:40:50.474Z,3.67
2019-01-18T13:45:47.295Z,4.00
2019-01-18T13:50:44.276Z,4.43
2019-01-18T13:55:41.394Z,3.13
2019-01-18T14:00:38.518Z,4.50
2019-01-18T14:05:35.636Z,3.03
2019-01-18T14:10:33.365Z,3.20
2019-01-18T14:15:30.231Z,2.90
2019-01-18T14:20:29.046Z,2.57
2019-01-18T14:25:26.149Z,2.80
2019-01-18T14:30:26.700Z,1.30
2019-01-18T14:35:23.643Z,1.77
2019-01-18T14:40:20.694Z,2.33
2019-01-18T14:45:20.722Z,1.50
2019-01-18T14:50:19.546Z,2.97
2019-01-18T14:55:16.627Z,1.73
2019-01-18T15:00:25.084Z,2.03
2019-01-18T15:05:22.007Z,3.03
2019-01-18T15:10:23.429Z,4.70
2019-01-18T15:15:20.240Z,2.57
2019-01-18T15:20:19.335Z,2.97
2019-01-18T15:25:15.700Z,3.10
2019-01-18T15:30:18.444Z,3.23
2019-01-18T15:35:23.715Z,2.93
2019-01-18T15:40:22.683Z,4.10
2019-01-18T15:45:19.576Z,3.60
2019-01-18T15:50:29.432Z,3.97
2019-01-18T15:55:26.466Z,2.87
2019-01-18T16:00:25.066Z,3.37
2019-01-18T16:05:21.086Z,4.27
2019-01-18T16:10:16.979Z,4.07
2019-01-18T16:15:16.020Z,5.73
2019-01-18T16:20:14.317Z,4.63
2019-01-18T16:25:18.847Z,5.00
2019-01-18T16:30:17.845Z,4.70
2019-01-18T16:35:15.139Z,4.67
2019-01-18T16:40:14.440Z,4.13
2019-01-18T16:45:11.136Z,5.30
2019-01-18T16:50:10.138Z,6.30
2019-01-18T16:55:11.485Z,5.77
2019-01-18T17:00:14.285Z,4.47
2019-01-18T17:05:10.302Z,5.03
2019-01-18T17:10:10.149Z,5.60
2019-01-18T17:15:09.548Z,5.70
2019-01-18T17:20:18.244Z,6.30
2019-01-18T17:25:14.207Z,6.77
2019-01-18T17:30:16.693Z,6.10
2019-01-18T17:35:18.913Z,6.17
2019-01-18T17:40:18.657Z,6.60
2019-01-18T17:45:36.721Z,6.50
2019-01-18T17:50:42.461Z,5.83
2019-01-18T17:55:48.451Z,6.93
2019-01-18T18:00:52.238Z,7.17
2019-01-18T18:06:11.063Z,7.20
2019-01-18T18:11:19.964Z,7.80
2019-01-18T18:16:31.567Z,8.20
2019-01-18T18:21:48.007Z,7.80
2019-01-18T18:27:28.818Z,7.37
2019-01-18T18:32:34.711Z,8.60
2019-01-18T18:38:00.280Z,9.00
2019-01-18T18:43:27.331Z,8.00
2019-01-18T18:48:30.135Z,8.63
2019-01-18T18:53:46.941Z,9.03
2019-01-18T18:58:50.087Z,9.43
2019-01-18T19:04:05.230Z,8.73
2019-01-18T19:09:28.100Z,8.53
2019-01-18T19:14:50.778Z,9.90
2019-01-18T19:20:11.529Z,9.10
2019-01-18T19:25:29.393Z,10.77
2019-01-18T19:30:29.107Z,9.40
2019-01-18T19:35:41.141Z,10.50
2019-01-18T19:40:58.017Z,10.70
2019-01-18T19:46:09.553Z,10.10
2019-01-18T19:51:15.105Z,10.10
2019-01-18T19:56:30.043Z,9.33
2019-01-18T20:01:39.152Z,9.47
2019-01-18T20:06:47.777Z,10.30
2019-01-18T20:12:16.041Z,10.50
2019-01-18T20:17:36.748Z,10.10
2019-01-18T20:22:45.000Z,10.60
2019-01-18T20:28:12.383Z,9.60
2019-01-18T20:33:28.730Z,10.73
2019-01-18T20:38:46.588Z,11.47
2019-01-18T20:43:49.257Z,11.57
2019-01-18T20:49:06.106Z,11.70
2019-01-18T20:54:39.012Z,9.00
2019-01-18T20:59:38.825Z,9.57
2019-01-18T21:04:50.823Z,9.83
2019-01-18T21:10:02.896Z,10.67
2019-01-18T21:15:02.696Z,11.53
2019-01-18T21:20:03.347Z,12.90
2019-01-18T21:25:10.052Z,11.10
2019-01-18T21:30:25.260Z,11.20
2019-01-18T21:35:41.863Z,12.43
2019-01-18T21:40:44.603Z,17.30
2019-01-18T21:46:11.413Z,10.70
2019-01-18T21:51:19.916Z,11.33
2019-01-18T21:56:27.930Z,10.20
2019-01-18T22:01:36.530Z,12.67
2019-01-18T22:06:55.662Z,11.53
2019-01-18T22:12:10.249Z,10.50
2019-01-18T22:17:33.937Z,12.77
2019-01-18T22:22:48.870Z,11.90
2019-01-18T22:27:57.471Z,10.80
2019-01-18T22:33:06.412Z,11.57
2019-01-18T22:38:06.123Z,10.20
2019-01-18T22:43:12.077Z,9.10
2019-01-18T22:48:21.034Z,9.20
2019-01-18T22:53:49.202Z,9.30
2019-01-18T22:59:16.074Z,8.60
2019-01-18T23:04:21.652Z,9.63
2019-01-18T23:09:30.685Z,9.00
2019-01-18T23:14:48.512Z,9.10
2019-01-18T23:19:52.710Z,9.80
2019-01-18T23:24:52.381Z,9.27
2019-01-18T23:30:01.063Z,8.80
2019-01-18T23:35:03.808Z,7.30
2019-01-18T23:40:37.608Z,8.00
2019-01-18T23:45:46.338Z,6.80
2019-01-18T23:51:07.115Z,7.00
2019-01-18T23:56:15.605Z,7.10
